Time,TemperatureF,DewpointF,PressureIn,WindDirection,WindDirectionDegrees,WindSpeedMPH,WindSpeedGustMPH,Humidity,HourlyPrecipIn,Conditions,Clouds,dailyrainin,SoftwareType,DateUTC
2013-10-12 00:07:00,65.4,63.0,29.93,SE,128,8.0,10.0,93,0.00,,,0.00,weatherlink.com 1.10,2013-10-12 04:07:00,
2013-10-12 00:22:00,65.8,64.0,29.93,NNW,345,0.0,10.0,94,0.00,,,0.00,weatherlink.com 1.10,2013-10-12 04:22:00,
2013-10-12 00:37:00,65.9,64.0,29.93,NNW,344,0.0,1.0,93,0.00,,,0.00,weatherlink.com 1.10,2013-10-12 04:37:00,
2013-10-12 00:52:00,65.8,64.0,29.93,NW,320,0.0,1.0,93,0.00,,,0.00,weatherlink.com 1.10,2013-10-12 04:52:00,
2013-10-12 01:07:00,65.8,64.0,29.93,West,273,0.0,1.0,93,0.00,,,0.00,weatherlink.com 1.10,2013-10-12 05:07:00,
2013-10-12 01:22:00,65.8,64.0,29.93,WNW,302,0.0,0.0,93,0.00,,,0.00,weatherlink.com 1.10,2013-10-12 05:22:00,
2013-10-12 01:37:00,65.9,64.0,29.93,West,278,1.0,1.0,92,0.00,,,0.00,weatherlink.com 1.10,2013-10-12 05:37:00,
2013-10-12 01:52:00,65.8,64.0,29.93,WNW,283,0.0,1.0,93,0.00,,,0.00,weatherlink.com 1.10,2013-10-12 05:52:00,
2013-10-12 02:07:00,65.9,64.0,29.93,West,270,0.0,1.0,93,0.00,,,0.00,weatherlink.com 1.10,2013-10-12 06:07:00,
2013-10-12 02:22:00,65.8,64.0,29.93,West,262,0.0,1.0,93,0.00,,,0.00,weatherlink.com 1.10,2013-10-12 06:22:00,
2013-10-12 02:37:00,65.5,63.0,29.93,West,280,0.0,1.0,92,0.00,,,0.00,weatherlink.com 1.10,2013-10-12 06:37:00,
2013-10-12 02:52:00,-999.0,-99.9,29.92,North,-999,-999.0,-999.0,-999,0.00,,,0.00,weatherlink.com 1.10,2013-10-12 06:52:00,
2013-10-12 03:07:00,-999.0,-99.9,29.92,North,-999,-999.0,-999.0,-999,0.00,,,0.00,weatherlink.com 1.10,2013-10-12 07:07:00,
2013-10-12 03:22:00,-999.0,-99.9,29.92,North,-999,-999.0,-999.0,-999,0.00,,,0.00,weatherlink.com 1.10,2013-10-12 07:22:00,
2013-10-12 03:37:00,-999.0,-99.9,29.92,North,-999,-999.0,-999.0,-999,0.00,,,0.00,weatherlink.com 1.10,2013-10-12 07:37:00,
2013-10-12 03:53:00,-999.0,-99.9,29.92,North,-999,-999.0,-999.0,-999,0.00,,,0.00,weatherlink.com 1.10,2013-10-12 07:53:00,
2013-10-12 04:08:00,-999.0,-99.9,29.92,North,-999,-999.0,-999.0,-999,0.00,,,0.00,weatherlink.com 1.10,2013-10-12 08:08:00,
2013-10-12 04:23:00,-999.0,-99.9,29.93,North,-999,-999.0,-999.0,-999,0.00,,,0.00,weatherlink.com 1.10,2013-10-12 08:23:00,
2013-10-12 04:38:00,-999.0,-99.9,29.93,North,-999,-999.0,-999.0,-999,0.00,,,0.00,weatherlink.com 1.10,2013-10-12 08:38:00,
2013-10-12 04:53:00,-999.0,-99.9,29.93,North,-999,-999.0,-999.0,-999,0.00,,,0.00,weatherlink.com 1.10,2013-10-12 08:53:00,
2013-10-12 05:08:00,-999.0,-99.9,29.93,North,-999,-999.0,-999.0,-999,0.00,,,0.00,weatherlink.com 1.10,2013-10-12 09:08:00,
2013-10-12 05:23:00,-999.0,-99.9,29.93,North,-999,-999.0,-999.0,-999,0.00,,,0.00,weatherlink.com 1.10,2013-10-12 09:23:00,
2013-10-12 05:38:00,-999.0,-99.9,29.93,North,-999,-999.0,-999.0,-999,0.00,,,0.00,weatherlink.com 1.10,2013-10-12 09:38:00,
2013-10-12 05:53:00,-999.0,-99.9,29.94,North,-999,-999.0,-999.0,-999,0.00,,,0.00,weatherlink.com 1.10,2013-10-12 09:53:00,
2013-10-12 06:08:00,-999.0,-99.9,29.94,North,-999,-999.0,-999.0,-999,0.00,,,0.00,weatherlink.com 1.10,2013-10-12 10:08:00,
2013-10-12 06:23:00,-999.0,-99.9,29.95,North,-999,-999.0,-999.0,-999,0.00,,,0.00,weatherlink.com 1.10,2013-10-12 10:23:00,
2013-10-12 06:38:00,-999.0,-99.9,29.95,North,-999,-999.0,-999.0,-999,0.00,,,0.00,weatherlink.com 1.10,2013-10-12 10:38:00,
2013-10-12 06:53:00,-999.0,-99.9,29.95,North,-999,-999.0,-999.0,-999,0.00,,,0.00,weatherlink.com 1.10,2013-10-12 10:53:00,
2013-10-12 07:08:00,-999.0,-99.9,29.95,North,-999,-999.0,-999.0,-999,0.00,,,0.00,weatherlink.com 1.10,2013-10-12 11:08:00,
2013-10-12 07:23:00,-999.0,-99.9,29.96,North,-999,-999.0,-999.0,-999,0.00,,,0.00,weatherlink.com 1.10,2013-10-12 11:23:00,
2013-10-12 07:39:00,-999.0,-99.9,29.96,North,-999,-999.0,-999.0,-999,0.00,,,0.00,weatherlink.com 1.10,2013-10-12 11:39:00,
2013-10-12 07:54:00,-999.0,-99.9,29.97,North,-999,-999.0,-999.0,-999,0.00,,,0.00,weatherlink.com 1.10,2013-10-12 11:54:00,
2013-10-12 08:09:00,-999.0,-99.9,29.98,North,-999,-999.0,-999.0,-999,0.00,,,0.00,weatherlink.com 1.10,2013-10-12 12:09:00,
2013-10-12 08:24:00,65.1,63.0,29.98,ESE,113,3.0,6.0,92,0.00,,,0.00,weatherlink.com 1.10,2013-10-12 12:24:00,
2013-10-12 08:39:00,65.2,63.0,29.98,East,98,2.0,5.0,92,0.00,,,0.00,weatherlink.com 1.10,2013-10-12 12:39:00,
2013-10-12 08:54:00,65.2,63.0,29.99,East,98,2.0,9.0,92,0.00,,,0.00,weatherlink.com 1.10,2013-10-12 12:54:00,
2013-10-12 09:09:00,65.5,63.0,29.99,ESE,102,3.0,9.0,92,0.00,,,0.00,weatherlink.com 1.10,2013-10-12 13:09:00,
2013-10-12 09:24:00,65.6,63.0,29.99,ESE,115,4.0,8.0,91,0.00,,,0.00,weatherlink.com 1.10,2013-10-12 13:24:00,
2013-10-12 09:39:00,65.7,63.0,29.99,ESE,110,4.0,6.0,92,0.00,,,0.00,weatherlink.com 1.10,2013-10-12 13:39:00,
2013-10-12 09:54:00,65.7,63.0,29.99,SE,131,4.0,5.0,92,0.00,,,0.00,weatherlink.com 1.10,2013-10-12 13:54:00,
2013-10-12 10:09:00,66.0,63.0,29.99,SE,129,5.0,7.0,91,0.00,,,0.00,weatherlink.com 1.10,2013-10-12 14:09:00,
2013-10-12 10:24:00,66.2,63.0,29.99,SE,126,4.0,5.0,90,0.00,,,0.00,weatherlink.com 1.10,2013-10-12 14:24:00,
2013-10-12 10:39:00,66.5,64.0,29.99,ESE,104,3.0,5.0,90,0.00,,,0.00,weatherlink.com 1.10,2013-10-12 14:39:00,
2013-10-12 10:54:00,66.5,64.0,29.99,ESE,108,3.0,5.0,90,0.00,,,0.00,weatherlink.com 1.10,2013-10-12 14:54:00,
2013-10-12 11:09:00,67.0,64.0,29.99,ENE,76,0.0,5.0,89,0.00,,,0.00,weatherlink.com 1.10,2013-10-12 15:09:00,
2013-10-12 11:24:00,66.8,64.0,30.00,East,94,2.0,5.0,89,0.00,,,0.00,weatherlink.com 1.10,2013-10-12 15:24:00,
2013-10-12 11:39:00,66.5,64.0,30.00,ENE,72,0.0,4.0,90,0.00,,,0.00,weatherlink.com 1.10,2013-10-12 15:39:00,
2013-10-12 11:54:00,66.7,64.0,30.00,East,83,1.0,4.0,90,0.00,,,0.00,weatherlink.com 1.10,2013-10-12 15:54:00,
2013-10-12 12:09:00,66.4,64.0,30.00,East,92,3.0,3.0,90,0.00,,,0.00,weatherlink.com 1.10,2013-10-12 16:09:00,
2013-10-12 12:24:00,66.5,64.0,30.00,ESE,115,3.0,4.0,90,0.00,,,0.00,weatherlink.com 1.10,2013-10-12 16:24:00,
2013-10-12 12:39:00,66.4,64.0,30.00,ESE,113,4.0,5.0,90,0.00,,,0.00,weatherlink.com 1.10,2013-10-12 16:39:00,
2013-10-12 12:54:00,66.6,64.0,30.00,East,98,2.0,4.0,91,0.00,,,0.00,weatherlink.com 1.10,2013-10-12 16:54:00,
2013-10-12 13:09:00,66.6,64.0,29.99,ESE,108,2.0,4.0,90,0.00,,,0.00,weatherlink.com 1.10,2013-10-12 17:09:00,
2013-10-12 13:24:00,66.9,64.0,29.99,ESE,113,4.0,5.0,91,0.00,,,0.00,weatherlink.com 1.10,2013-10-12 17:24:00,
2013-10-12 13:39:00,66.7,64.0,29.98,ESE,103,2.0,6.0,91,0.00,,,0.00,weatherlink.com 1.10,2013-10-12 17:39:00,
2013-10-12 13:54:00,66.9,64.0,29.98,ESE,108,2.0,4.0,91,0.00,,,0.00,weatherlink.com 1.10,2013-10-12 17:54:00,
2013-10-12 14:09:00,66.9,64.0,29.98,ESE,110,2.0,4.0,91,0.00,,,0.00,weatherlink.com 1.10,2013-10-12 18:09:00,
2013-10-12 14:24:00,66.9,64.0,29.98,East,98,2.0,3.0,91,0.00,,,0.00,weatherlink.com 1.10,2013-10-12 18:24:00,
2013-10-12 14:39:00,66.9,64.0,29.98,ESE,108,2.0,4.0,91,0.00,,,0.00,weatherlink.com 1.10,2013-10-12 18:39:00,
2013-10-12 14:54:00,67.1,65.0,29.98,East,101,2.0,4.0,91,0.00,,,0.00,weatherlink.com 1.10,2013-10-12 18:54:00,
2013-10-12 15:09:00,67.3,64.0,29.98,ESE,103,2.0,4.0,90,0.00,,,0.00,weatherlink.com 1.10,2013-10-12 19:09:00,
2013-10-12 15:24:00,67.2,65.0,29.98,ESE,111,4.0,6.0,91,0.00,,,0.00,weatherlink.com 1.10,2013-10-12 19:24:00,
2013-10-12 15:39:00,67.2,65.0,29.98,ESE,122,4.0,6.0,91,0.00,,,0.00,weatherlink.com 1.10,2013-10-12 19:39:00,
2013-10-12 15:54:00,67.1,65.0,29.98,ESE,111,3.0,4.0,92,0.00,,,0.00,weatherlink.com 1.10,2013-10-12 19:54:00,
2013-10-12 16:09:00,67.2,65.0,29.98,ESE,118,4.0,5.0,91,0.00,,,0.00,weatherlink.com 1.10,2013-10-12 20:09:00,
2013-10-12 16:24:00,67.0,64.0,29.98,SE,124,5.0,6.0,91,0.00,,,0.00,weatherlink.com 1.10,2013-10-12 20:24:00,
2013-10-12 16:39:00,67.0,64.0,29.98,ESE,103,1.0,4.0,91,0.00,,,0.00,weatherlink.com 1.10,2013-10-12 20:39:00,
2013-10-12 16:54:00,67.1,65.0,29.98,East,97,1.0,2.0,91,0.00,,,0.00,weatherlink.com 1.10,2013-10-12 20:54:00,
2013-10-12 17:09:00,66.9,64.0,29.99,ESE,107,2.0,5.0,91,0.00,,,0.00,weatherlink.com 1.10,2013-10-12 21:09:00,
2013-10-12 17:24:00,66.9,64.0,29.99,ESE,117,3.0,5.0,91,0.00,,,0.00,weatherlink.com 1.10,2013-10-12 21:24:00,
2013-10-12 17:39:00,67.0,64.0,29.99,South,173,4.0,5.0,91,0.00,,,0.00,weatherlink.com 1.10,2013-10-12 21:39:00,
2013-10-12 17:54:00,66.9,64.0,29.99,SE,144,4.0,8.0,90,0.00,,,0.00,weatherlink.com 1.10,2013-10-12 21:54:00,
2013-10-12 18:09:00,66.6,64.0,30.00,SE,131,4.0,9.0,91,0.00,,,0.00,weatherlink.com 1.10,2013-10-12 22:09:00,
2013-10-12 18:24:00,66.5,64.0,30.00,SSW,212,6.0,9.0,92,0.00,,,0.00,weatherlink.com 1.10,2013-10-12 22:24:00,
2013-10-12 18:39:00,66.6,64.0,30.00,ESE,111,1.0,8.0,92,0.00,,,0.00,weatherlink.com 1.10,2013-10-12 22:39:00,
2013-10-12 18:54:00,66.7,64.0,30.01,SE,132,2.0,8.0,92,0.00,,,0.00,weatherlink.com 1.10,2013-10-12 22:54:00,
2013-10-12 19:09:00,66.8,65.0,30.01,SE,139,2.0,7.0,92,0.00,,,0.00,weatherlink.com 1.10,2013-10-12 23:09:00,
2013-10-12 19:24:00,67.0,65.0,30.02,SE,134,2.0,8.0,92,0.00,,,0.00,weatherlink.com 1.10,2013-10-12 23:24:00,
2013-10-12 19:39:00,66.9,65.0,30.02,ESE,120,2.0,7.0,92,0.00,,,0.00,weatherlink.com 1.10,2013-10-12 23:39:00,
2013-10-12 19:54:00,66.9,65.0,30.02,SSE,160,3.0,6.0,92,0.00,,,0.00,weatherlink.com 1.10,2013-10-12 23:54:00,
2013-10-12 20:09:00,67.1,65.0,30.03,SE,127,3.0,7.0,92,0.00,,,0.00,weatherlink.com 1.10,2013-10-13 00:09:00,
2013-10-12 20:24:00,67.3,65.0,30.02,SE,138,3.0,7.0,92,0.00,,,0.00,weatherlink.com 1.10,2013-10-13 00:24:00,
2013-10-12 20:40:00,67.4,65.0,30.02,East,100,1.0,8.0,91,0.00,,,0.00,weatherlink.com 1.10,2013-10-13 00:40:00,
2013-10-12 20:55:00,67.5,65.0,30.03,SSW,207,5.0,9.0,91,0.00,,,0.00,weatherlink.com 1.10,2013-10-13 00:55:00,
2013-10-12 21:11:00,67.5,65.0,30.02,SW,221,2.0,4.0,92,0.00,,,0.00,weatherlink.com 1.10,2013-10-13 01:11:00,
2013-10-12 21:25:00,67.5,65.0,30.02,SSE,155,2.0,5.0,92,0.00,,,0.00,weatherlink.com 1.10,2013-10-13 01:25:00,
2013-10-12 21:40:00,67.3,65.0,30.03,SSW,200,1.0,6.0,92,0.00,,,0.00,weatherlink.com 1.10,2013-10-13 01:40:00,
2013-10-12 21:55:00,67.3,65.0,30.03,East,94,2.0,3.0,93,0.00,,,0.00,weatherlink.com 1.10,2013-10-13 01:55:00,
2013-10-12 22:10:00,67.6,65.0,30.03,SW,217,6.0,9.0,92,0.00,,,0.00,weatherlink.com 1.10,2013-10-13 02:10:00,
2013-10-12 22:25:00,67.5,66.0,30.03,South,191,2.0,5.0,93,0.00,,,0.00,weatherlink.com 1.10,2013-10-13 02:25:00,
2013-10-12 22:40:00,67.5,66.0,30.03,SSW,207,4.0,6.0,93,0.00,,,0.00,weatherlink.com 1.10,2013-10-13 02:40:00,
2013-10-12 22:55:00,67.5,65.0,30.04,SSE,160,2.0,6.0,92,0.00,,,0.00,weatherlink.com 1.10,2013-10-13 02:55:00,
2013-10-12 23:10:00,67.4,65.0,30.04,SSW,199,6.0,9.0,92,0.00,,,0.00,weatherlink.com 1.10,2013-10-13 03:10:00,
2013-10-12 23:25:00,67.5,65.0,30.04,WSW,240,4.0,9.0,91,0.00,,,0.00,weatherlink.com 1.10,2013-10-13 03:25:00,
2013-10-12 23:40:00,67.5,65.0,30.04,SW,217,6.0,10.0,91,0.00,,,0.00,weatherlink.com 1.10,2013-10-13 03:40:00,
2013-10-12 23:55:00,67.4,65.0,30.03,SE,131,3.0,8.0,91,0.00,,,0.00,weatherlink.com 1.10,2013-10-13 03:55:00,